sensor_id;sensor_type;location;lat;lon;timestamp;P1;durP1;ratioP1;P2;durP2;ratioP2
315;SDS011;14128;48.686;9.738;2022-10-15T00:01:16;2.17;;;2.00;;
315;SDS011;14128;48.686;9.738;2022-10-15T00:03:43;1.10;;;0.40;;
315;SDS011;14128;48.686;9.738;2022-10-15T00:06:11;0.50;;;0.30;;
315;SDS011;14128;48.686;9.738;2022-10-15T00:08:41;0.77;;;0.50;;
315;SDS011;14128;48.686;9.738;2022-10-15T00:11:09;4.30;;;1.47;;
315;SDS011;14128;48.686;9.738;2022-10-15T00:13:37;1.23;;;0.40;;
315;SDS011;14128;48.686;9.738;2022-10-15T00:16:05;1.20;;;0.40;;
315;SDS011;14128;48.686;9.738;2022-10-15T00:18:33;0.40;;;0.30;;
315;SDS011;14128;48.686;9.738;2022-10-15T00:21:00;1.27;;;0.30;;
315;SDS011;14128;48.686;9.738;2022-10-15T00:23:27;0.97;;;0.30;;
315;SDS011;14128;48.686;9.738;2022-10-15T00:26:02;0.63;;;0.43;;
315;SDS011;14128;48.686;9.738;2022-10-15T00:28:29;3.90;;;0.40;;
315;SDS011;14128;48.686;9.738;2022-10-15T00:31:00;1.13;;;0.30;;
315;SDS011;14128;48.686;9.738;2022-10-15T00:33:28;0.40;;;0.20;;
315;SDS011;14128;48.686;9.738;2022-10-15T00:35:59;1.03;;;0.30;;
315;SDS011;14128;48.686;9.738;2022-10-15T00:38:27;1.23;;;0.20;;
315;SDS011;14128;48.686;9.738;2022-10-15T00:40:54;0.30;;;0.20;;
315;SDS011;14128;48.686;9.738;2022-10-15T00:43:35;0.83;;;0.20;;
315;SDS011;14128;48.686;9.738;2022-10-15T00:46:04;0.97;;;0.20;;
315;SDS011;14128;48.686;9.738;2022-10-15T00:48:37;0.40;;;0.20;;
315;SDS011;14128;48.686;9.738;2022-10-15T00:51:04;0.53;;;0.40;;
315;SDS011;14128;48.686;9.738;2022-10-15T00:53:31;3.70;;;0.30;;
315;SDS011;14128;48.686;9.738;2022-10-15T00:55:58;0.50;;;0.20;;
315;SDS011;14128;48.686;9.738;2022-10-15T00:58:26;1.43;;;0.30;;
315;SDS011;14128;48.686;9.738;2022-10-15T01:00:58;1.07;;;0.27;;
315;SDS011;14128;48.686;9.738;2022-10-15T01:03:25;0.60;;;0.23;;
315;SDS011;14128;48.686;9.738;2022-10-15T01:05:52;0.70;;;0.40;;
315;SDS011;14128;48.686;9.738;2022-10-15T01:08:19;0.40;;;0.20;;
315;SDS011;14128;48.686;9.738;2022-10-15T01:10:47;0.50;;;0.30;;
315;SDS011;14128;48.686;9.738;2022-10-15T01:13:21;2.63;;;0.43;;
315;SDS011;14128;48.686;9.738;2022-10-15T01:15:56;0.87;;;0.20;;
315;SDS011;14128;48.686;9.738;2022-10-15T01:18:32;2.50;;;0.40;;
315;SDS011;14128;48.686;9.738;2022-10-15T01:21:06;0.80;;;0.50;;
315;SDS011;14128;48.686;9.738;2022-10-15T01:23:46;1.80;;;0.33;;
315;SDS011;14128;48.686;9.738;2022-10-15T01:27:08;0.70;;;0.30;;
315;SDS011;14128;48.686;9.738;2022-10-15T01:29:47;0.80;;;0.40;;
315;SDS011;14128;48.686;9.738;2022-10-15T01:32:30;1.43;;;0.30;;
315;SDS011;14128;48.686;9.738;2022-10-15T01:35:02;0.83;;;0.30;;
315;SDS011;14128;48.686;9.738;2022-10-15T01:37:38;1.43;;;0.73;;
315;SDS011;14128;48.686;9.738;2022-10-15T01:40:12;1.33;;;0.50;;
315;SDS011;14128;48.686;9.738;2022-10-15T01:42:45;0.60;;;0.30;;
315;SDS011;14128;48.686;9.738;2022-10-15T01:45:18;0.63;;;0.40;;
315;SDS011;14128;48.686;9.738;2022-10-15T01:47:50;2.67;;;0.33;;
315;SDS011;14128;48.686;9.738;2022-10-15T01:50:19;2.20;;;0.40;;
315;SDS011;14128;48.686;9.738;2022-10-15T01:52:49;2.00;;;0.50;;
315;SDS011;14128;48.686;9.738;2022-10-15T01:55:17;1.70;;;0.83;;
315;SDS011;14128;48.686;9.738;2022-10-15T01:57:46;0.50;;;0.27;;
315;SDS011;14128;48.686;9.738;2022-10-15T02:00:14;0.70;;;0.60;;
315;SDS011;14128;48.686;9.738;2022-10-15T02:02:41;0.73;;;0.30;;
315;SDS011;14128;48.686;9.738;2022-10-15T02:05:11;1.90;;;0.40;;
315;SDS011;14128;48.686;9.738;2022-10-15T02:07:44;4.70;;;0.50;;
315;SDS011;14128;48.686;9.738;2022-10-15T02:10:19;2.43;;;1.43;;
315;SDS011;14128;48.686;9.738;2022-10-15T02:12:51;4.33;;;1.50;;
315;SDS011;14128;48.686;9.738;2022-10-15T02:15:29;1.80;;;1.10;;
315;SDS011;14128;48.686;9.738;2022-10-15T02:18:02;0.50;;;0.40;;
315;SDS011;14128;48.686;9.738;2022-10-15T02:20:35;3.23;;;1.13;;
315;SDS011;14128;48.686;9.738;2022-10-15T02:23:09;1.67;;;0.93;;
315;SDS011;14128;48.686;9.738;2022-10-15T02:25:40;1.87;;;0.43;;
315;SDS011;14128;48.686;9.738;2022-10-15T02:28:09;0.67;;;0.33;;
315;SDS011;14128;48.686;9.738;2022-10-15T02:30:38;1.63;;;0.30;;
315;SDS011;14128;48.686;9.738;2022-10-15T02:33:07;2.50;;;0.30;;
315;SDS011;14128;48.686;9.738;2022-10-15T02:35:37;0.90;;;0.30;;
315;SDS011;14128;48.686;9.738;2022-10-15T02:38:04;0.57;;;0.30;;
315;SDS011;14128;48.686;9.738;2022-10-15T02:40:33;0.97;;;0.40;;
315;SDS011;14128;48.686;9.738;2022-10-15T02:43:02;1.23;;;0.40;;
315;SDS011;14128;48.686;9.738;2022-10-15T02:45:30;1.03;;;0.60;;
315;SDS011;14128;48.686;9.738;2022-10-15T02:47:57;0.83;;;0.60;;
315;SDS011;14128;48.686;9.738;2022-10-15T02:50:24;1.83;;;1.73;;
315;SDS011;14128;48.686;9.738;2022-10-15T02:52:52;1.30;;;1.20;;
315;SDS011;14128;48.686;9.738;2022-10-15T02:55:19;1.40;;;1.30;;
315;SDS011;14128;48.686;9.738;2022-10-15T02:57:46;0.93;;;0.83;;
315;SDS011;14128;48.686;9.738;2022-10-15T03:00:13;1.00;;;0.40;;
315;SDS011;14128;48.686;9.738;2022-10-15T03:02:40;1.03;;;0.80;;
315;SDS011;14128;48.686;9.738;2022-10-15T03:05:07;0.60;;;0.60;;
315;SDS011;14128;48.686;9.738;2022-10-15T03:07:34;1.53;;;0.60;;
315;SDS011;14128;48.686;9.738;2022-10-15T03:10:03;1.20;;;0.40;;
315;SDS011;14128;48.686;9.738;2022-10-15T03:12:30;7.30;;;0.60;;
315;SDS011;14128;48.686;9.738;2022-10-15T03:14:57;0.70;;;0.30;;
315;SDS011;14128;48.686;9.738;2022-10-15T03:17:24;1.50;;;0.40;;
315;SDS011;14128;48.686;9.738;2022-10-15T03:19:50;0.40;;;0.23;;
315;SDS011;14128;48.686;9.738;2022-10-15T03:22:17;0.77;;;0.47;;
315;SDS011;14128;48.686;9.738;2022-10-15T03:24:44;0.67;;;0.30;;
315;SDS011;14128;48.686;9.738;2022-10-15T03:27:12;0.83;;;0.50;;
315;SDS011;14128;48.686;9.738;2022-10-15T03:29:39;2.03;;;0.40;;
315;SDS011;14128;48.686;9.738;2022-10-15T03:32:05;0.63;;;0.50;;
315;SDS011;14128;48.686;9.738;2022-10-15T03:34:32;2.70;;;0.87;;
315;SDS011;14128;48.686;9.738;2022-10-15T03:36:59;2.27;;;0.80;;
315;SDS011;14128;48.686;9.738;2022-10-15T03:39:26;2.50;;;0.70;;
315;SDS011;14128;48.686;9.738;2022-10-15T03:41:53;2.90;;;1.13;;
315;SDS011;14128;48.686;9.738;2022-10-15T03:44:21;1.47;;;0.60;;
315;SDS011;14128;48.686;9.738;2022-10-15T03:46:47;2.10;;;0.50;;
315;SDS011;14128;48.686;9.738;2022-10-15T03:49:14;0.70;;;0.40;;
315;SDS011;14128;48.686;9.738;2022-10-15T03:51:41;0.50;;;0.30;;
315;SDS011;14128;48.686;9.738;2022-10-15T03:54:08;0.70;;;0.30;;
315;SDS011;14128;48.686;9.738;2022-10-15T03:56:34;1.00;;;0.60;;
315;SDS011;14128;48.686;9.738;2022-10-15T03:59:01;0.70;;;0.30;;
315;SDS011;14128;48.686;9.738;2022-10-15T04:01:29;0.40;;;0.30;;
315;SDS011;14128;48.686;9.738;2022-10-15T04:03:56;1.20;;;0.30;;
315;SDS011;14128;48.686;9.738;2022-10-15T04:06:23;1.40;;;0.40;;
315;SDS011;14128;48.686;9.738;2022-10-15T04:08:50;3.50;;;0.40;;
315;SDS011;14128;48.686;9.738;2022-10-15T04:11:17;1.20;;;0.50;;
315;SDS011;14128;48.686;9.738;2022-10-15T04:13:46;1.20;;;1.03;;
315;SDS011;14128;48.686;9.738;2022-10-15T04:16:15;2.00;;;1.00;;
315;SDS011;14128;48.686;9.738;2022-10-15T04:18:43;1.37;;;0.50;;
315;SDS011;14128;48.686;9.738;2022-10-15T04:21:09;0.40;;;0.20;;
315;SDS011;14128;48.686;9.738;2022-10-15T04:23:36;0.50;;;0.40;;
315;SDS011;14128;48.686;9.738;2022-10-15T04:26:03;0.47;;;0.33;;
315;SDS011;14128;48.686;9.738;2022-10-15T04:28:31;0.60;;;0.30;;
315;SDS011;14128;48.686;9.738;2022-10-15T04:30:58;6.53;;;2.27;;
315;SDS011;14128;48.686;9.738;2022-10-15T04:33:26;3.50;;;0.30;;
315;SDS011;14128;48.686;9.738;2022-10-15T04:36:01;0.77;;;0.47;;
315;SDS011;14128;48.686;9.738;2022-10-15T04:38:29;1.20;;;0.40;;
315;SDS011;14128;48.686;9.738;2022-10-15T04:40:57;0.40;;;0.20;;
315;SDS011;14128;48.686;9.738;2022-10-15T04:43:25;0.63;;;0.30;;
315;SDS011;14128;48.686;9.738;2022-10-15T04:45:54;0.50;;;0.33;;
315;SDS011;14128;48.686;9.738;2022-10-15T04:48:21;1.33;;;0.30;;
315;SDS011;14128;48.686;9.738;2022-10-15T04:50:48;1.27;;;0.30;;
315;SDS011;14128;48.686;9.738;2022-10-15T04:53:16;0.50;;;0.30;;
315;SDS011;14128;48.686;9.738;2022-10-15T04:55:43;0.40;;;0.30;;
315;SDS011;14128;48.686;9.738;2022-10-15T04:58:10;2.00;;;0.47;;
315;SDS011;14128;48.686;9.738;2022-10-15T05:00:37;0.40;;;0.23;;
315;SDS011;14128;48.686;9.738;2022-10-15T05:03:04;0.60;;;0.30;;
315;SDS011;14128;48.686;9.738;2022-10-15T05:05:31;0.40;;;0.20;;
315;SDS011;14128;48.686;9.738;2022-10-15T05:07:59;0.50;;;0.30;;
315;SDS011;14128;48.686;9.738;2022-10-15T05:10:27;0.40;;;0.20;;
315;SDS011;14128;48.686;9.738;2022-10-15T05:12:54;0.97;;;0.20;;
315;SDS011;14128;48.686;9.738;2022-10-15T05:15:21;1.53;;;0.30;;
315;SDS011;14128;48.686;9.738;2022-10-15T05:17:47;0.80;;;0.30;;
315;SDS011;14128;48.686;9.738;2022-10-15T05:20:14;0.47;;;0.23;;
315;SDS011;14128;48.686;9.738;2022-10-15T05:22:41;5.80;;;1.00;;
315;SDS011;14128;48.686;9.738;2022-10-15T05:25:08;1.70;;;1.07;;
315;SDS011;14128;48.686;9.738;2022-10-15T05:27:36;0.40;;;0.30;;
315;SDS011;14128;48.686;9.738;2022-10-15T05:30:03;0.80;;;0.27;;
315;SDS011;14128;48.686;9.738;2022-10-15T05:32:31;0.70;;;0.30;;
315;SDS011;14128;48.686;9.738;2022-10-15T05:34:58;1.27;;;0.60;;
315;SDS011;14128;48.686;9.738;2022-10-15T05:37:24;0.90;;;0.50;;
315;SDS011;14128;48.686;9.738;2022-10-15T05:39:51;1.20;;;1.00;;
315;SDS011;14128;48.686;9.738;2022-10-15T05:42:18;1.43;;;0.90;;
315;SDS011;14128;48.686;9.738;2022-10-15T05:44:46;0.83;;;0.60;;
315;SDS011;14128;48.686;9.738;2022-10-15T05:47:13;0.60;;;0.40;;
315;SDS011;14128;48.686;9.738;2022-10-15T05:49:40;0.97;;;0.67;;
315;SDS011;14128;48.686;9.738;2022-10-15T05:52:06;1.03;;;0.60;;
315;SDS011;14128;48.686;9.738;2022-10-15T05:54:33;1.20;;;0.50;;
315;SDS011;14128;48.686;9.738;2022-10-15T05:57:00;3.00;;;0.80;;
315;SDS011;14128;48.686;9.738;2022-10-15T05:59:27;0.90;;;0.77;;
315;SDS011;14128;48.686;9.738;2022-10-15T06:01:55;1.93;;;0.60;;
315;SDS011;14128;48.686;9.738;2022-10-15T06:04:22;0.80;;;0.50;;
315;SDS011;14128;48.686;9.738;2022-10-15T06:06:48;1.20;;;0.40;;
315;SDS011;14128;48.686;9.738;2022-10-15T06:09:15;0.60;;;0.40;;
315;SDS011;14128;48.686;9.738;2022-10-15T06:11:42;0.40;;;0.30;;
315;SDS011;14128;48.686;9.738;2022-10-15T06:14:09;3.13;;;0.43;;
315;SDS011;14128;48.686;9.738;2022-10-15T06:16:35;0.47;;;0.27;;
315;SDS011;14128;48.686;9.738;2022-10-15T06:19:04;2.10;;;0.40;;
315;SDS011;14128;48.686;9.738;2022-10-15T06:21:30;0.40;;;0.30;;
315;SDS011;14128;48.686;9.738;2022-10-15T06:23:57;0.67;;;0.40;;
315;SDS011;14128;48.686;9.738;2022-10-15T06:26:24;0.70;;;0.40;;
315;SDS011;14128;48.686;9.738;2022-10-15T06:28:51;0.80;;;0.40;;
315;SDS011;14128;48.686;9.738;2022-10-15T06:31:19;0.60;;;0.37;;
315;SDS011;14128;48.686;9.738;2022-10-15T06:33:46;0.60;;;0.30;;
315;SDS011;14128;48.686;9.738;2022-10-15T06:36:14;0.50;;;0.30;;
315;SDS011;14128;48.686;9.738;2022-10-15T06:38:41;0.60;;;0.40;;
315;SDS011;14128;48.686;9.738;2022-10-15T06:41:09;2.40;;;0.70;;
315;SDS011;14128;48.686;9.738;2022-10-15T06:43:36;2.80;;;0.50;;
315;SDS011;14128;48.686;9.738;2022-10-15T06:46:03;0.40;;;0.30;;
315;SDS011;14128;48.686;9.738;2022-10-15T06:48:30;0.60;;;0.40;;
315;SDS011;14128;48.686;9.738;2022-10-15T06:50:57;1.30;;;0.27;;
315;SDS011;14128;48.686;9.738;2022-10-15T06:53:26;0.60;;;0.27;;
315;SDS011;14128;48.686;9.738;2022-10-15T06:55:55;1.53;;;0.50;;
315;SDS011;14128;48.686;9.738;2022-10-15T06:58:22;1.00;;;0.30;;
315;SDS011;14128;48.686;9.738;2022-10-15T07:00:49;0.90;;;0.60;;
315;SDS011;14128;48.686;9.738;2022-10-15T07:03:16;0.80;;;0.30;;
315;SDS011;14128;48.686;9.738;2022-10-15T07:05:43;0.60;;;0.40;;
315;SDS011;14128;48.686;9.738;2022-10-15T07:08:10;0.60;;;0.40;;
315;SDS011;14128;48.686;9.738;2022-10-15T07:10:38;1.83;;;0.30;;
315;SDS011;14128;48.686;9.738;2022-10-15T07:13:05;2.20;;;0.47;;
315;SDS011;14128;48.686;9.738;2022-10-15T07:15:32;0.93;;;0.30;;
315;SDS011;14128;48.686;9.738;2022-10-15T07:17:59;0.70;;;0.53;;
315;SDS011;14128;48.686;9.738;2022-10-15T07:20:26;0.83;;;0.40;;
315;SDS011;14128;48.686;9.738;2022-10-15T07:22:54;0.60;;;0.50;;
315;SDS011;14128;48.686;9.738;2022-10-15T07:25:22;0.63;;;0.40;;
315;SDS011;14128;48.686;9.738;2022-10-15T07:27:50;2.00;;;0.60;;
315;SDS011;14128;48.686;9.738;2022-10-15T07:30:19;0.53;;;0.30;;
315;SDS011;14128;48.686;9.738;2022-10-15T07:32:46;0.90;;;0.50;;
315;SDS011;14128;48.686;9.738;2022-10-15T07:35:13;0.67;;;0.50;;
315;SDS011;14128;48.686;9.738;2022-10-15T07:37:40;0.70;;;0.43;;
315;SDS011;14128;48.686;9.738;2022-10-15T07:40:07;1.40;;;0.40;;
315;SDS011;14128;48.686;9.738;2022-10-15T07:42:34;0.40;;;0.40;;
315;SDS011;14128;48.686;9.738;2022-10-15T07:45:02;2.50;;;0.40;;
315;SDS011;14128;48.686;9.738;2022-10-15T07:47:30;1.33;;;0.40;;
315;SDS011;14128;48.686;9.738;2022-10-15T07:49:56;0.77;;;0.40;;
315;SDS011;14128;48.686;9.738;2022-10-15T07:52:23;0.60;;;0.50;;
315;SDS011;14128;48.686;9.738;2022-10-15T07:54:50;1.37;;;1.27;;
315;SDS011;14128;48.686;9.738;2022-10-15T07:57:17;1.63;;;1.57;;
315;SDS011;14128;48.686;9.738;2022-10-15T07:59:44;1.80;;;1.60;;
315;SDS011;14128;48.686;9.738;2022-10-15T08:02:12;1.03;;;1.03;;
315;SDS011;14128;48.686;9.738;2022-10-15T08:04:40;0.63;;;0.60;;
315;SDS011;14128;48.686;9.738;2022-10-15T08:07:07;0.60;;;0.60;;
315;SDS011;14128;48.686;9.738;2022-10-15T08:09:34;1.63;;;0.70;;
315;SDS011;14128;48.686;9.738;2022-10-15T08:12:01;0.47;;;0.40;;
315;SDS011;14128;48.686;9.738;2022-10-15T08:14:30;1.70;;;0.30;;
315;SDS011;14128;48.686;9.738;2022-10-15T08:16:57;1.20;;;0.40;;
315;SDS011;14128;48.686;9.738;2022-10-15T08:19:25;1.37;;;1.13;;
315;SDS011;14128;48.686;9.738;2022-10-15T08:21:52;1.80;;;0.70;;
315;SDS011;14128;48.686;9.738;2022-10-15T08:24:19;0.50;;;0.30;;
315;SDS011;14128;48.686;9.738;2022-10-15T08:26:45;0.50;;;0.50;;
315;SDS011;14128;48.686;9.738;2022-10-15T08:29:13;1.50;;;0.50;;
315;SDS011;14128;48.686;9.738;2022-10-15T08:31:40;2.20;;;0.70;;
315;SDS011;14128;48.686;9.738;2022-10-15T08:34:07;0.80;;;0.30;;
315;SDS011;14128;48.686;9.738;2022-10-15T08:36:36;0.70;;;0.60;;
315;SDS011;14128;48.686;9.738;2022-10-15T08:39:02;0.70;;;0.53;;
315;SDS011;14128;48.686;9.738;2022-10-15T08:41:31;0.80;;;0.40;;
315;SDS011;14128;48.686;9.738;2022-10-15T08:44:05;3.23;;;2.00;;
315;SDS011;14128;48.686;9.738;2022-10-15T08:46:39;4.77;;;2.50;;
315;SDS011;14128;48.686;9.738;2022-10-15T08:49:12;2.00;;;1.13;;
315;SDS011;14128;48.686;9.738;2022-10-15T08:51:50;4.00;;;2.17;;
315;SDS011;14128;48.686;9.738;2022-10-15T08:54:22;6.77;;;3.93;;
315;SDS011;14128;48.686;9.738;2022-10-15T08:56:50;6.30;;;3.90;;
315;SDS011;14128;48.686;9.738;2022-10-15T08:59:27;2.07;;;1.10;;
315;SDS011;14128;48.686;9.738;2022-10-15T09:02:09;0.57;;;0.30;;
315;SDS011;14128;48.686;9.738;2022-10-15T09:04:46;1.10;;;0.57;;
315;SDS011;14128;48.686;9.738;2022-10-15T09:07:22;5.27;;;2.53;;
315;SDS011;14128;48.686;9.738;2022-10-15T09:09:56;1.80;;;1.10;;
315;SDS011;14128;48.686;9.738;2022-10-15T09:12:35;1.17;;;0.73;;
315;SDS011;14128;48.686;9.738;2022-10-15T09:15:09;0.50;;;0.40;;
315;SDS011;14128;48.686;9.738;2022-10-15T09:17:39;1.73;;;0.60;;
315;SDS011;14128;48.686;9.738;2022-10-15T09:20:12;0.70;;;0.33;;
315;SDS011;14128;48.686;9.738;2022-10-15T09:22:42;0.97;;;0.70;;
315;SDS011;14128;48.686;9.738;2022-10-15T09:25:14;1.23;;;0.40;;
315;SDS011;14128;48.686;9.738;2022-10-15T09:27:42;0.93;;;0.37;;
315;SDS011;14128;48.686;9.738;2022-10-15T09:30:16;1.43;;;0.50;;
315;SDS011;14128;48.686;9.738;2022-10-15T09:32:58;0.40;;;0.30;;
315;SDS011;14128;48.686;9.738;2022-10-15T09:35:33;0.50;;;0.37;;
315;SDS011;14128;48.686;9.738;2022-10-15T09:38:22;0.90;;;0.70;;
315;SDS011;14128;48.686;9.738;2022-10-15T09:40:55;0.77;;;0.70;;
315;SDS011;14128;48.686;9.738;2022-10-15T09:43:40;0.70;;;0.33;;
315;SDS011;14128;48.686;9.738;2022-10-15T09:46:10;0.93;;;0.40;;
315;SDS011;14128;48.686;9.738;2022-10-15T09:48:39;1.47;;;0.67;;
315;SDS011;14128;48.686;9.738;2022-10-15T09:51:11;0.40;;;0.30;;
315;SDS011;14128;48.686;9.738;2022-10-15T09:53:51;0.70;;;0.40;;
315;SDS011;14128;48.686;9.738;2022-10-15T09:56:25;2.80;;;0.30;;
315;SDS011;14128;48.686;9.738;2022-10-15T09:58:56;0.87;;;0.30;;
315;SDS011;14128;48.686;9.738;2022-10-15T10:01:24;0.90;;;0.57;;
315;SDS011;14128;48.686;9.738;2022-10-15T10:03:52;1.50;;;0.50;;
315;SDS011;14128;48.686;9.738;2022-10-15T10:06:41;0.83;;;0.40;;
315;SDS011;14128;48.686;9.738;2022-10-15T10:09:13;3.73;;;0.80;;
315;SDS011;14128;48.686;9.738;2022-10-15T10:11:46;2.87;;;1.33;;
315;SDS011;14128;48.686;9.738;2022-10-15T10:14:21;2.87;;;0.70;;
315;SDS011;14128;48.686;9.738;2022-10-15T10:17:09;0.70;;;0.40;;
315;SDS011;14128;48.686;9.738;2022-10-15T10:19:41;1.00;;;0.40;;
315;SDS011;14128;48.686;9.738;2022-10-15T10:22:13;0.67;;;0.43;;
315;SDS011;14128;48.686;9.738;2022-10-15T10:24:42;2.20;;;0.40;;
315;SDS011;14128;48.686;9.738;2022-10-15T10:27:20;1.23;;;0.60;;
315;SDS011;14128;48.686;9.738;2022-10-15T10:29:48;0.70;;;0.40;;
315;SDS011;14128;48.686;9.738;2022-10-15T10:32:20;0.60;;;0.43;;
315;SDS011;14128;48.686;9.738;2022-10-15T10:34:49;1.27;;;0.30;;
315;SDS011;14128;48.686;9.738;2022-10-15T10:37:16;2.67;;;0.50;;
315;SDS011;14128;48.686;9.738;2022-10-15T10:39:44;3.30;;;0.70;;
315;SDS011;14128;48.686;9.738;2022-10-15T10:42:24;0.97;;;0.50;;
315;SDS011;14128;48.686;9.738;2022-10-15T10:44:53;1.00;;;0.80;;
315;SDS011;14128;48.686;9.738;2022-10-15T10:47:20;1.43;;;0.50;;
315;SDS011;14128;48.686;9.738;2022-10-15T10:49:49;3.53;;;1.10;;
315;SDS011;14128;48.686;9.738;2022-10-15T10:52:18;4.33;;;1.53;;
315;SDS011;14128;48.686;9.738;2022-10-15T10:54:48;3.23;;;0.40;;
315;SDS011;14128;48.686;9.738;2022-10-15T10:57:24;0.80;;;0.40;;
315;SDS011;14128;48.686;9.738;2022-10-15T10:59:58;1.70;;;0.40;;
315;SDS011;14128;48.686;9.738;2022-10-15T11:02:28;3.03;;;0.77;;
315;SDS011;14128;48.686;9.738;2022-10-15T11:04:56;2.10;;;0.63;;
315;SDS011;14128;48.686;9.738;2022-10-15T11:07:24;1.70;;;0.40;;
315;SDS011;14128;48.686;9.738;2022-10-15T11:10:00;1.63;;;1.10;;
315;SDS011;14128;48.686;9.738;2022-10-15T11:12:43;0.90;;;0.50;;
315;SDS011;14128;48.686;9.738;2022-10-15T11:15:27;3.30;;;0.70;;
315;SDS011;14128;48.686;9.738;2022-10-15T11:20:53;2.30;;;0.80;;
315;SDS011;14128;48.686;9.738;2022-10-15T11:23:25;1.53;;;0.60;;
315;SDS011;14128;48.686;9.738;2022-10-15T11:26:13;1.40;;;0.70;;
315;SDS011;14128;48.686;9.738;2022-10-15T11:28:54;1.97;;;0.43;;
315;SDS011;14128;48.686;9.738;2022-10-15T11:31:32;4.93;;;0.90;;
315;SDS011;14128;48.686;9.738;2022-10-15T11:34:08;2.07;;;0.60;;
315;SDS011;14128;48.686;9.738;2022-10-15T11:36:51;4.80;;;1.60;;
315;SDS011;14128;48.686;9.738;2022-10-15T11:39:37;2.47;;;0.70;;
315;SDS011;14128;48.686;9.738;2022-10-15T11:42:22;2.57;;;0.80;;
315;SDS011;14128;48.686;9.738;2022-10-15T11:45:00;1.70;;;0.40;;
315;SDS011;14128;48.686;9.738;2022-10-15T11:47:36;0.93;;;0.33;;
315;SDS011;14128;48.686;9.738;2022-10-15T11:53:01;3.40;;;0.37;;
315;SDS011;14128;48.686;9.738;2022-10-15T11:55:48;1.10;;;0.37;;
315;SDS011;14128;48.686;9.738;2022-10-15T11:58:23;2.60;;;0.67;;
315;SDS011;14128;48.686;9.738;2022-10-15T12:00:55;1.67;;;0.33;;
315;SDS011;14128;48.686;9.738;2022-10-15T12:03:26;1.57;;;0.40;;
315;SDS011;14128;48.686;9.738;2022-10-15T12:05:55;2.30;;;0.50;;
315;SDS011;14128;48.686;9.738;2022-10-15T12:08:27;2.20;;;0.60;;
315;SDS011;14128;48.686;9.738;2022-10-15T12:11:07;1.63;;;0.40;;
315;SDS011;14128;48.686;9.738;2022-10-15T12:13:49;3.33;;;1.00;;
315;SDS011;14128;48.686;9.738;2022-10-15T12:16:23;2.13;;;0.43;;
315;SDS011;14128;48.686;9.738;2022-10-15T12:18:56;1.30;;;0.57;;
315;SDS011;14128;48.686;9.738;2022-10-15T12:21:34;0.57;;;0.30;;
315;SDS011;14128;48.686;9.738;2022-10-15T12:24:03;1.33;;;0.60;;
315;SDS011;14128;48.686;9.738;2022-10-15T12:26:34;1.70;;;0.60;;
315;SDS011;14128;48.686;9.738;2022-10-15T12:29:04;1.00;;;0.77;;
315;SDS011;14128;48.686;9.738;2022-10-15T12:31:45;1.27;;;0.47;;
315;SDS011;14128;48.686;9.738;2022-10-15T12:34:23;0.40;;;0.30;;
315;SDS011;14128;48.686;9.738;2022-10-15T12:36:58;1.40;;;0.43;;
315;SDS011;14128;48.686;9.738;2022-10-15T12:39:29;1.90;;;0.60;;
315;SDS011;14128;48.686;9.738;2022-10-15T12:41:57;0.80;;;0.67;;
315;SDS011;14128;48.686;9.738;2022-10-15T12:44:26;4.90;;;1.27;;
315;SDS011;14128;48.686;9.738;2022-10-15T12:46:55;2.30;;;0.50;;
315;SDS011;14128;48.686;9.738;2022-10-15T12:49:43;0.60;;;0.30;;
315;SDS011;14128;48.686;9.738;2022-10-15T12:55:20;2.07;;;0.50;;
315;SDS011;14128;48.686;9.738;2022-10-15T12:57:53;1.37;;;0.50;;
315;SDS011;14128;48.686;9.738;2022-10-15T13:03:14;0.53;;;0.33;;
315;SDS011;14128;48.686;9.738;2022-10-15T13:05:46;2.00;;;0.50;;
315;SDS011;14128;48.686;9.738;2022-10-15T13:08:14;0.80;;;0.50;;
315;SDS011;14128;48.686;9.738;2022-10-15T13:10:45;1.83;;;1.17;;
315;SDS011;14128;48.686;9.738;2022-10-15T13:13:17;1.50;;;0.43;;
315;SDS011;14128;48.686;9.738;2022-10-15T13:15:51;0.93;;;0.50;;
315;SDS011;14128;48.686;9.738;2022-10-15T13:18:22;1.43;;;0.40;;
315;SDS011;14128;48.686;9.738;2022-10-15T13:20:49;1.00;;;0.50;;
315;SDS011;14128;48.686;9.738;2022-10-15T13:23:21;1.77;;;0.40;;
315;SDS011;14128;48.686;9.738;2022-10-15T13:25:52;2.33;;;0.67;;
315;SDS011;14128;48.686;9.738;2022-10-15T13:28:36;1.03;;;0.50;;
315;SDS011;14128;48.686;9.738;2022-10-15T13:31:07;1.20;;;0.70;;
315;SDS011;14128;48.686;9.738;2022-10-15T13:33:40;1.60;;;0.57;;
315;SDS011;14128;48.686;9.738;2022-10-15T13:36:14;1.90;;;0.53;;
315;SDS011;14128;48.686;9.738;2022-10-15T13:38:49;1.07;;;0.60;;
315;SDS011;14128;48.686;9.738;2022-10-15T13:41:22;3.80;;;0.63;;
315;SDS011;14128;48.686;9.738;2022-10-15T13:43:51;5.40;;;0.93;;
315;SDS011;14128;48.686;9.738;2022-10-15T13:46:23;0.77;;;0.73;;
315;SDS011;14128;48.686;9.738;2022-10-15T13:48:55;2.20;;;1.23;;
315;SDS011;14128;48.686;9.738;2022-10-15T13:51:24;1.83;;;1.00;;
315;SDS011;14128;48.686;9.738;2022-10-15T13:53:56;1.57;;;0.90;;
315;SDS011;14128;48.686;9.738;2022-10-15T13:56:26;0.90;;;0.60;;
315;SDS011;14128;48.686;9.738;2022-10-15T13:58:54;0.87;;;0.70;;
315;SDS011;14128;48.686;9.738;2022-10-15T14:01:24;1.27;;;1.00;;
315;SDS011;14128;48.686;9.738;2022-10-15T14:03:52;2.50;;;1.30;;
315;SDS011;14128;48.686;9.738;2022-10-15T14:06:20;3.97;;;0.90;;
315;SDS011;14128;48.686;9.738;2022-10-15T14:08:49;1.07;;;0.70;;
315;SDS011;14128;48.686;9.738;2022-10-15T14:11:17;1.93;;;0.97;;
315;SDS011;14128;48.686;9.738;2022-10-15T14:13:45;1.97;;;0.97;;
315;SDS011;14128;48.686;9.738;2022-10-15T14:16:14;2.57;;;1.23;;
315;SDS011;14128;48.686;9.738;2022-10-15T14:18:47;1.70;;;0.83;;
315;SDS011;14128;48.686;9.738;2022-10-15T14:21:17;2.70;;;1.40;;
315;SDS011;14128;48.686;9.738;2022-10-15T14:23:45;1.90;;;1.20;;
315;SDS011;14128;48.686;9.738;2022-10-15T14:26:13;1.00;;;0.90;;
315;SDS011;14128;48.686;9.738;2022-10-15T14:28:48;4.20;;;1.07;;
315;SDS011;14128;48.686;9.738;2022-10-15T14:31:24;2.10;;;0.90;;
315;SDS011;14128;48.686;9.738;2022-10-15T14:33:57;2.77;;;1.23;;
315;SDS011;14128;48.686;9.738;2022-10-15T14:36:25;4.37;;;0.50;;
315;SDS011;14128;48.686;9.738;2022-10-15T14:38:53;1.13;;;0.73;;
315;SDS011;14128;48.686;9.738;2022-10-15T14:41:22;2.30;;;0.50;;
315;SDS011;14128;48.686;9.738;2022-10-15T14:43:59;0.60;;;0.40;;
315;SDS011;14128;48.686;9.738;2022-10-15T14:46:30;1.37;;;1.30;;
315;SDS011;14128;48.686;9.738;2022-10-15T14:49:04;1.43;;;0.90;;
315;SDS011;14128;48.686;9.738;2022-10-15T14:51:42;3.67;;;1.63;;
315;SDS011;14128;48.686;9.738;2022-10-15T14:54:11;3.90;;;1.23;;
315;SDS011;14128;48.686;9.738;2022-10-15T14:56:47;2.03;;;0.90;;
315;SDS011;14128;48.686;9.738;2022-10-15T14:59:16;1.43;;;0.83;;
315;SDS011;14128;48.686;9.738;2022-10-15T15:01:54;2.03;;;0.93;;
315;SDS011;14128;48.686;9.738;2022-10-15T15:04:34;1.60;;;0.70;;
315;SDS011;14128;48.686;9.738;2022-10-15T15:07:05;1.53;;;0.93;;
315;SDS011;14128;48.686;9.738;2022-10-15T15:09:38;9.33;;;1.83;;
315;SDS011;14128;48.686;9.738;2022-10-15T15:12:07;3.20;;;1.33;;
315;SDS011;14128;48.686;9.738;2022-10-15T15:14:43;3.97;;;2.00;;
315;SDS011;14128;48.686;9.738;2022-10-15T15:17:17;1.83;;;0.90;;
315;SDS011;14128;48.686;9.738;2022-10-15T15:19:47;2.73;;;2.10;;
315;SDS011;14128;48.686;9.738;2022-10-15T15:22:16;5.90;;;3.10;;
315;SDS011;14128;48.686;9.738;2022-10-15T15:24:48;4.43;;;2.83;;
315;SDS011;14128;48.686;9.738;2022-10-15T15:27:19;4.50;;;3.00;;
315;SDS011;14128;48.686;9.738;2022-10-15T15:29:48;4.47;;;3.37;;
315;SDS011;14128;48.686;9.738;2022-10-15T15:32:16;3.70;;;3.33;;
315;SDS011;14128;48.686;9.738;2022-10-15T15:34:43;3.10;;;2.40;;
315;SDS011;14128;48.686;9.738;2022-10-15T15:37:14;2.53;;;1.97;;
315;SDS011;14128;48.686;9.738;2022-10-15T15:39:42;4.20;;;1.80;;
315;SDS011;14128;48.686;9.738;2022-10-15T15:42:10;2.97;;;2.60;;
315;SDS011;14128;48.686;9.738;2022-10-15T15:44:39;3.13;;;2.50;;
315;SDS011;14128;48.686;9.738;2022-10-15T15:47:06;3.13;;;2.80;;